createdAt,value
2018-07-07T00:03:12.036Z,99795.16
2018-07-07T00:07:56.684Z,99795.49
2018-07-07T00:12:40.826Z,99794.19
2018-07-07T00:17:24.475Z,99789.49
2018-07-07T00:22:08.697Z,99781.33
2018-07-07T00:26:52.671Z,99776.59
2018-07-07T00:31:36.434Z,99767.50
2018-07-07T00:36:21.165Z,99768.03
2018-07-07T00:41:04.764Z,99766.00
2018-07-07T00:45:52.285Z,99764.70
2018-07-07T00:50:36.058Z,99756.74
2018-07-07T00:55:19.830Z,99758.70
2018-07-07T01:00:03.408Z,99754.30
2018-07-07T01:04:50.164Z,99745.84
2018-07-07T01:09:33.675Z,99749.95
2018-07-07T01:14:17.770Z,99746.88
2018-07-07T01:19:01.459Z,99740.08
2018-07-07T01:23:44.910Z,99736.92
2018-07-07T01:28:31.677Z,99732.49
2018-07-07T01:33:15.374Z,99733.27
2018-07-07T01:38:00.148Z,99724.36
2018-07-07T01:42:43.857Z,99731.83
2018-07-07T01:47:27.719Z,99729.40
2018-07-07T01:52:11.391Z,99728.36
2018-07-07T01:56:54.877Z,99730.22
2018-07-07T02:01:38.534Z,99727.16
2018-07-07T02:06:25.462Z,99729.84
2018-07-07T02:11:09.020Z,99735.20
2018-07-07T02:15:55.588Z,99737.20
2018-07-07T02:20:39.010Z,99742.05
2018-07-07T02:25:23.593Z,99751.71
2018-07-07T02:30:07.107Z,99751.77
2018-07-07T02:34:54.718Z,99748.80
2018-07-07T02:39:38.307Z,99751.28
2018-07-07T02:44:22.796Z,99756.69
2018-07-07T02:49:06.555Z,99744.08
2018-07-07T02:53:50.286Z,99752.16
2018-07-07T02:58:33.987Z,99755.30
2018-07-07T03:03:17.662Z,99755.95
2018-07-07T03:08:04.755Z,99749.46
2018-07-07T03:12:48.367Z,99749.23
2018-07-07T03:17:36.480Z,99755.10
2018-07-07T03:22:20.090Z,99744.66
2018-07-07T03:27:07.401Z,99749.27
2018-07-07T03:31:51.031Z,99747.98
2018-07-07T03:36:37.678Z,99752.00
2018-07-07T03:41:21.441Z,99751.86
2018-07-07T03:46:06.393Z,99759.84
2018-07-07T03:50:51.343Z,99750.84
2018-07-07T03:55:36.039Z,99751.42
2018-07-07T04:00:19.593Z,99757.60
2018-07-07T04:05:06.545Z,99758.04
2018-07-07T04:09:50.194Z,99758.50
2018-07-07T04:14:34.953Z,99757.69
2018-07-07T04:19:18.555Z,99753.54
2018-07-07T04:24:03.008Z,99756.63
2018-07-07T04:28:47.272Z,99761.56
2018-07-07T04:33:31.015Z,99764.37
2018-07-07T04:38:14.577Z,99764.44
2018-07-07T04:42:58.380Z,99761.29
2018-07-07T04:47:47.864Z,99761.15
2018-07-07T04:52:32.644Z,99765.74
2018-07-07T04:57:19.907Z,99762.67
2018-07-07T05:02:03.506Z,99759.00
2018-07-07T05:06:50.401Z,99769.18
2018-07-07T05:11:34.110Z,99770.94
2018-07-07T05:16:21.620Z,99762.96
2018-07-07T05:21:05.307Z,99773.77
2018-07-07T05:25:52.479Z,99771.80
2018-07-07T05:30:36.164Z,99776.07
2018-07-07T05:35:23.670Z,99778.13
2018-07-07T05:40:07.290Z,99785.68
2018-07-07T05:44:54.055Z,99781.95
2018-07-07T05:49:37.639Z,99782.70
2018-07-07T05:54:24.499Z,99784.06
2018-07-07T05:59:07.959Z,99787.73
2018-07-07T06:03:52.548Z,99785.63
2018-07-07T06:08:36.226Z,99786.91
2018-07-07T06:13:20.034Z,99778.58
2018-07-07T06:18:03.557Z,99776.61
2018-07-07T06:22:47.237Z,99773.10
2018-07-07T06:27:31.831Z,99768.11
2018-07-07T06:32:15.337Z,99763.53
2018-07-07T06:37:00.053Z,99761.27
2018-07-07T06:41:43.606Z,99759.22
2018-07-07T06:46:30.360Z,99757.37
2018-07-07T06:51:13.899Z,99758.11
2018-07-07T06:56:01.438Z,99758.45
2018-07-07T07:00:45.007Z,99757.59
2018-07-07T07:05:32.399Z,99766.20
2018-07-07T07:10:16.055Z,99752.28
2018-07-07T07:15:02.923Z,99751.28
2018-07-07T07:19:46.438Z,99749.03
2018-07-07T07:24:33.120Z,99754.39
2018-07-07T07:29:16.506Z,99747.40
2018-07-07T07:34:01.274Z,99748.22
2018-07-07T07:38:44.976Z,99757.55
2018-07-07T07:43:29.788Z,99751.89
2018-07-07T07:48:13.489Z,99762.03
2018-07-07T07:52:57.069Z,99752.62
2018-07-07T07:57:40.655Z,99762.48
2018-07-07T08:02:24.221Z,99770.88
2018-07-07T08:07:11.122Z,99765.58
2018-07-07T08:11:54.693Z,99767.86
2018-07-07T08:16:38.469Z,99777.72
2018-07-07T08:21:22.030Z,99772.27
2018-07-07T08:26:10.559Z,99772.91
2018-07-07T08:30:54.968Z,99774.40
2018-07-07T08:35:42.039Z,99766.58
2018-07-07T08:40:25.792Z,99760.92
2018-07-07T08:45:09.514Z,99753.83
2018-07-07T08:49:53.083Z,99752.59
2018-07-07T08:54:38.295Z,99744.91
2018-07-07T08:59:21.861Z,99742.21
2018-07-07T09:04:05.725Z,99740.86
2018-07-07T09:08:49.179Z,99736.42
2018-07-07T09:13:32.992Z,99729.73
2018-07-07T09:18:16.471Z,99733.05
2018-07-07T09:23:01.351Z,99731.34
2018-07-07T09:27:45.416Z,99735.92
2018-07-07T09:32:29.160Z,99734.39
2018-07-07T09:37:12.829Z,99737.44
2018-07-07T09:41:56.763Z,99737.08
2018-07-07T09:46:44.011Z,99738.41
2018-07-07T09:51:27.536Z,99736.09
2018-07-07T09:56:13.221Z,99735.70
2018-07-07T10:00:56.879Z,99739.97
2018-07-07T10:05:42.108Z,99738.56
2018-07-07T10:10:25.878Z,99742.92
2018-07-07T10:15:10.491Z,99730.06
2018-07-07T10:19:54.192Z,99731.20
2018-07-07T10:24:38.930Z,99724.67
2018-07-07T10:29:22.775Z,99733.81
2018-07-07T10:34:06.650Z,99727.29
2018-07-07T10:38:50.200Z,99724.27
2018-07-07T10:43:33.878Z,99721.20
2018-07-07T10:48:17.418Z,99709.61
2018-07-07T10:53:00.810Z,99704.52
2018-07-07T10:57:44.353Z,99702.85
2018-07-07T11:02:28.732Z,99700.67
2018-07-07T11:07:12.322Z,99695.42
2018-07-07T11:11:56.035Z,99683.55
2018-07-07T11:16:40.565Z,99675.23
2018-07-07T11:21:24.171Z,99674.81
2018-07-07T11:26:08.068Z,99662.66
2018-07-07T11:30:51.604Z,99662.08
2018-07-07T11:35:38.688Z,99664.61
2018-07-07T11:40:22.310Z,99660.98
2018-07-07T11:45:07.013Z,99656.51
2018-07-07T11:49:50.787Z,99648.37
2018-07-07T11:54:37.470Z,99653.74
2018-07-07T11:59:21.053Z,99665.21
2018-07-07T12:04:05.756Z,99661.66
2018-07-07T12:08:49.702Z,99663.58
2018-07-07T12:13:33.623Z,99665.06
2018-07-07T12:18:17.387Z,99654.58
2018-07-07T12:23:01.433Z,99652.93
2018-07-07T12:27:45.626Z,99645.47
2018-07-07T12:32:29.398Z,99648.41
2018-07-07T12:37:13.332Z,99644.16
2018-07-07T12:41:56.924Z,99649.21
2018-07-07T12:46:43.943Z,99654.44
2018-07-07T12:51:27.804Z,99658.50
2018-07-07T12:56:12.557Z,99649.41
2018-07-07T13:00:59.310Z,99646.03
2018-07-07T13:05:43.179Z,99639.95
2018-07-07T13:10:27.730Z,99640.98
2018-07-07T13:15:11.399Z,99647.25
2018-07-07T13:19:55.402Z,99658.35
2018-07-07T13:24:41.490Z,99656.83
2018-07-07T13:29:26.158Z,99655.96
2018-07-07T13:34:09.953Z,99661.71
2018-07-07T13:38:54.643Z,99672.67
2018-07-07T13:43:42.820Z,99664.94
2018-07-07T13:48:27.892Z,99665.59
2018-07-07T13:53:11.790Z,99667.96
2018-07-07T13:57:56.792Z,99667.63
2018-07-07T14:02:45.197Z,99655.66
2018-07-07T14:07:29.050Z,99646.38
2018-07-07T14:12:12.763Z,99646.89
2018-07-07T14:16:56.385Z,99651.77
2018-07-07T14:21:40.256Z,99657.00
2018-07-07T14:26:25.133Z,99656.16
2018-07-07T14:31:08.931Z,99659.52
2018-07-07T14:35:52.677Z,99656.82
2018-07-07T14:40:37.067Z,99652.63
2018-07-07T14:45:29.102Z,99649.92
2018-07-07T14:50:13.374Z,99637.44
2018-07-07T14:54:57.337Z,99642.35
2018-07-07T14:59:41.724Z,99645.39
2018-07-07T15:04:25.591Z,99642.00
2018-07-07T15:09:09.536Z,99641.50
2018-07-07T15:13:53.531Z,99647.25
2018-07-07T15:18:44.472Z,99643.70
2018-07-07T15:23:32.014Z,99635.93
2018-07-07T15:28:17.117Z,99640.33
2018-07-07T15:33:05.931Z,99635.75
2018-07-07T15:38:04.235Z,99637.59
2018-07-07T15:42:52.866Z,99640.81
2018-07-07T15:47:40.459Z,99637.13
2018-07-07T15:52:24.830Z,99642.84
2018-07-07T15:57:08.747Z,99645.52
2018-07-07T16:01:52.574Z,99637.63
2018-07-07T16:06:36.189Z,99641.32
2018-07-07T16:11:20.093Z,99638.28
2018-07-07T16:16:05.084Z,99637.63
2018-07-07T16:20:49.016Z,99644.18
2018-07-07T16:25:32.894Z,99646.73
2018-07-07T16:30:16.682Z,99654.48
2018-07-07T16:35:03.551Z,99658.18
2018-07-07T16:39:47.174Z,99660.52
2018-07-07T16:44:31.920Z,99661.06
2018-07-07T16:49:19.013Z,99665.61
2018-07-07T16:54:07.709Z,99663.44
2018-07-07T16:58:52.557Z,99661.38
2018-07-07T17:03:39.247Z,99666.13
2018-07-07T17:08:25.762Z,99664.77
2018-07-07T17:13:15.031Z,99664.05
2018-07-07T17:17:59.437Z,99661.03
2018-07-07T17:22:44.555Z,99674.92
2018-07-07T17:27:28.098Z,99661.71
2018-07-07T17:32:12.720Z,99659.30
2018-07-07T17:36:56.720Z,99664.88
2018-07-07T17:41:41.467Z,99661.78
2018-07-07T17:46:29.206Z,99659.66
2018-07-07T17:51:13.967Z,99649.80
2018-07-07T17:56:01.724Z,99649.87
2018-07-07T18:00:45.199Z,99654.69
2018-07-07T18:05:29.998Z,99664.97
2018-07-07T18:10:13.582Z,99681.81
2018-07-07T18:14:59.534Z,99690.70
2018-07-07T18:19:43.918Z,99694.56
2018-07-07T18:24:44.858Z,99688.83
2018-07-07T18:29:28.869Z,99695.09
2018-07-07T18:34:15.640Z,99696.19
2018-07-07T18:38:59.306Z,99689.88
2018-07-07T18:43:42.822Z,99695.42
2018-07-07T18:48:26.406Z,99699.00
2018-07-07T18:53:10.927Z,99687.38
2018-07-07T18:57:54.511Z,99699.57
2018-07-07T19:02:38.403Z,99703.19
2018-07-07T19:07:21.948Z,99703.56
2018-07-07T19:12:06.573Z,99703.23
2018-07-07T19:16:50.294Z,99710.13
2018-07-07T19:21:39.645Z,99709.48
2018-07-07T19:26:28.637Z,99719.41
2018-07-07T19:31:12.336Z,99712.20
2018-07-07T19:36:01.291Z,99705.91
2018-07-07T19:40:45.333Z,99705.75
2018-07-07T19:45:33.309Z,99695.20
2018-07-07T19:50:17.219Z,99697.80
2018-07-07T19:55:04.528Z,99698.03
2018-07-07T19:59:48.178Z,99694.38
2018-07-07T20:04:34.860Z,99700.63
2018-07-07T20:09:19.019Z,99695.38
2018-07-07T20:14:02.863Z,99703.19
2018-07-07T20:19:02.523Z,99703.97
2018-07-07T20:23:47.059Z,99707.91
2018-07-07T20:28:36.578Z,99709.52
2018-07-07T20:33:23.183Z,99712.49
2018-07-07T20:38:06.940Z,99714.41
2018-07-07T20:42:50.938Z,99709.67
2018-07-07T20:47:34.522Z,99708.29
2018-07-07T20:52:18.326Z,99709.95
2018-07-07T20:57:01.895Z,99719.13
2018-07-07T21:01:46.647Z,99721.94
2018-07-07T21:06:31.748Z,99727.48
2018-07-07T21:11:16.484Z,99716.17
2018-07-07T21:15:59.830Z,99713.49
2018-07-07T21:20:43.669Z,99705.53
2018-07-07T21:25:28.307Z,99712.19
2018-07-07T21:30:11.929Z,99719.13
2018-07-07T21:34:56.555Z,99716.22
2018-07-07T21:39:40.514Z,99719.11
2018-07-07T21:44:24.125Z,99716.33
2018-07-07T21:49:07.661Z,99720.55
2018-07-07T21:53:51.535Z,99718.72
2018-07-07T21:58:35.257Z,99720.84
2018-07-07T22:03:24.239Z,99719.92
2018-07-07T22:08:13.151Z,99716.11
2018-07-07T22:12:57.050Z,99707.62
2018-07-07T22:17:48.920Z,99705.78
2018-07-07T22:22:33.397Z,99700.42
2018-07-07T22:27:16.951Z,99695.80
2018-07-07T22:32:02.297Z,99697.33
2018-07-07T22:36:45.861Z,99694.41
2018-07-07T22:42:00.157Z,99691.97
2018-07-07T22:46:43.703Z,99689.98
2018-07-07T22:51:27.461Z,99695.75
2018-07-07T22:56:11.070Z,99698.19
2018-07-07T23:00:54.724Z,99694.25
2018-07-07T23:05:38.328Z,99697.46
2018-07-07T23:10:21.861Z,99695.98
2018-07-07T23:15:05.326Z,99692.03
2018-07-07T23:19:49.003Z,99705.76
2018-07-07T23:24:32.965Z,99701.27
2018-07-07T23:29:16.407Z,99710.58
2018-07-07T23:33:59.992Z,99714.84
2018-07-07T23:38:44.381Z,99719.97
2018-07-07T23:43:28.073Z,99711.14
2018-07-07T23:48:11.664Z,99709.85
2018-07-07T23:52:55.459Z,99710.80
2018-07-07T23:57:38.983Z,99711.70
